createdAt,value
2018-09-14T00:00:49.044Z,0.63
2018-09-14T00:03:16.193Z,1.00
2018-09-14T00:05:43.330Z,0.60
2018-09-14T00:08:10.499Z,0.67
2018-09-14T00:10:37.703Z,0.97
2018-09-14T00:13:05.237Z,0.80
2018-09-14T00:15:32.383Z,1.10
2018-09-14T00:17:59.508Z,0.90
2018-09-14T00:20:26.659Z,1.03
2018-09-14T00:22:53.817Z,0.80
2018-09-14T00:25:21.015Z,1.00
2018-09-14T00:27:48.298Z,0.97
2018-09-14T00:30:15.419Z,0.93
2018-09-14T00:32:42.669Z,0.90
2018-09-14T00:35:09.829Z,0.90
2018-09-14T00:37:37.015Z,0.90
2018-09-14T00:40:04.372Z,0.73
2018-09-14T00:42:31.487Z,0.90
2018-09-14T00:44:58.632Z,1.17
2018-09-14T00:47:25.827Z,1.37
2018-09-14T00:49:53.000Z,1.33
2018-09-14T00:52:20.174Z,1.50
2018-09-14T00:54:47.343Z,1.63
2018-09-14T00:57:14.458Z,1.93
2018-09-14T00:59:41.623Z,1.90
2018-09-14T01:02:08.735Z,1.90
2018-09-14T01:04:35.878Z,1.80
2018-09-14T01:07:02.979Z,1.97
2018-09-14T01:09:30.102Z,1.90
2018-09-14T01:11:58.252Z,1.80
2018-09-14T01:14:26.271Z,2.17
2018-09-14T01:16:53.879Z,1.60
2018-09-14T01:19:21.077Z,1.80
2018-09-14T01:21:48.631Z,2.20
2018-09-14T01:24:15.751Z,2.77
2018-09-14T01:26:42.898Z,2.50
2018-09-14T01:29:10.055Z,2.30
2018-09-14T01:31:37.174Z,3.00
2018-09-14T01:34:04.391Z,3.20
2018-09-14T01:36:31.510Z,2.87
2018-09-14T01:38:58.607Z,3.00
2018-09-14T01:41:25.742Z,3.07
2018-09-14T01:43:52.915Z,3.07
2018-09-14T01:46:20.115Z,3.37
2018-09-14T01:48:47.889Z,3.23
2018-09-14T01:51:15.025Z,3.27
2018-09-14T01:53:42.186Z,3.50
2018-09-14T01:56:09.345Z,3.90
2018-09-14T01:58:36.456Z,3.23
2018-09-14T02:01:03.582Z,3.43
2018-09-14T02:03:30.816Z,3.27
2018-09-14T02:05:57.868Z,2.93
2018-09-14T02:08:25.010Z,3.57
2018-09-14T02:10:52.167Z,3.57
2018-09-14T02:13:19.322Z,3.83
2018-09-14T02:15:46.446Z,4.03
2018-09-14T02:18:13.564Z,4.63
2018-09-14T02:20:40.694Z,3.93
2018-09-14T02:23:07.847Z,4.50
2018-09-14T02:25:35.036Z,4.17
2018-09-14T02:28:02.127Z,5.27
2018-09-14T02:30:29.238Z,4.87
2018-09-14T02:32:56.367Z,4.30
2018-09-14T02:35:23.503Z,4.47
2018-09-14T02:37:50.640Z,4.60
2018-09-14T02:40:17.871Z,4.93
2018-09-14T02:42:44.974Z,5.53
2018-09-14T02:45:12.094Z,5.10
2018-09-14T02:47:39.231Z,5.47
2018-09-14T02:50:06.363Z,5.10
2018-09-14T02:52:33.473Z,5.10
2018-09-14T02:55:00.606Z,5.10
2018-09-14T02:57:27.723Z,5.13
2018-09-14T02:59:54.848Z,4.67
2018-09-14T03:02:22.005Z,4.63
2018-09-14T03:04:49.157Z,4.73
2018-09-14T03:07:16.261Z,4.67
2018-09-14T03:09:43.374Z,4.70
2018-09-14T03:12:10.517Z,5.03
2018-09-14T03:14:37.618Z,4.70
2018-09-14T03:17:04.917Z,4.60
2018-09-14T03:19:32.026Z,5.57
2018-09-14T03:21:59.130Z,5.13
2018-09-14T03:24:26.249Z,5.53
2018-09-14T03:26:53.421Z,5.13
2018-09-14T03:29:20.590Z,5.03
2018-09-14T03:31:47.729Z,5.17
2018-09-14T03:34:14.862Z,5.27
2018-09-14T03:36:41.975Z,5.07
2018-09-14T03:39:09.851Z,5.03
2018-09-14T03:41:36.994Z,4.60
2018-09-14T03:44:04.131Z,4.87
2018-09-14T03:46:31.262Z,5.43
2018-09-14T03:48:58.379Z,5.70
2018-09-14T03:51:25.490Z,4.27
2018-09-14T03:53:52.688Z,4.40
2018-09-14T03:56:19.869Z,5.03
2018-09-14T03:58:46.973Z,4.57
2018-09-14T04:01:14.101Z,5.03
2018-09-14T04:03:41.239Z,5.00
2018-09-14T04:06:08.374Z,5.50
2018-09-14T04:08:35.500Z,5.00
2018-09-14T04:11:02.629Z,5.27
2018-09-14T04:13:29.790Z,4.50
2018-09-14T04:15:56.922Z,4.70
2018-09-14T04:18:24.067Z,4.20
2018-09-14T04:20:51.305Z,4.00
2018-09-14T04:23:18.801Z,4.43
2018-09-14T04:25:45.919Z,3.23
2018-09-14T04:28:13.063Z,3.67
2018-09-14T04:30:40.214Z,4.30
2018-09-14T04:33:07.314Z,4.00
2018-09-14T04:35:34.422Z,3.67
2018-09-14T04:38:01.583Z,3.93
2018-09-14T04:40:28.653Z,4.30
2018-09-14T04:42:55.760Z,3.80
2018-09-14T04:45:22.941Z,3.93
2018-09-14T04:47:50.066Z,4.23
2018-09-14T04:50:17.289Z,4.40
2018-09-14T04:52:44.403Z,3.80
2018-09-14T04:55:11.563Z,4.10
2018-09-14T04:57:38.686Z,4.47
2018-09-14T05:00:05.898Z,4.63
2018-09-14T05:02:33.040Z,4.47
2018-09-14T05:05:00.154Z,4.13
2018-09-14T05:07:27.419Z,4.43
2018-09-14T05:09:54.559Z,4.73
2018-09-14T05:12:21.743Z,4.30
2018-09-14T05:14:48.982Z,3.97
2018-09-14T05:17:16.095Z,3.90
2018-09-14T05:19:43.195Z,4.30
2018-09-14T05:22:10.311Z,3.90
2018-09-14T05:24:37.579Z,4.13
2018-09-14T05:27:04.555Z,3.70
2018-09-14T05:29:31.715Z,4.00
2018-09-14T05:31:58.830Z,4.20
2018-09-14T05:34:25.941Z,4.67
2018-09-14T05:36:53.315Z,4.57
2018-09-14T05:39:20.481Z,5.07
2018-09-14T05:41:47.611Z,5.17
2018-09-14T05:44:14.749Z,5.00
2018-09-14T05:46:41.873Z,4.73
2018-09-14T05:49:09.063Z,5.23
2018-09-14T05:51:36.155Z,5.37
2018-09-14T05:54:03.279Z,5.07
2018-09-14T05:56:30.391Z,3.67
2018-09-14T05:58:57.493Z,4.30
2018-09-14T06:01:24.626Z,4.53
2018-09-14T06:03:51.790Z,4.00
2018-09-14T06:06:18.934Z,4.60
2018-09-14T06:08:46.036Z,4.97
2018-09-14T06:11:13.178Z,4.23
2018-09-14T06:13:40.283Z,4.73
2018-09-14T06:16:07.374Z,4.17
2018-09-14T06:18:34.481Z,4.53
2018-09-14T06:21:01.592Z,4.80
2018-09-14T06:23:28.695Z,3.93
2018-09-14T06:25:55.848Z,3.93
2018-09-14T06:28:22.983Z,4.30
2018-09-14T06:30:50.123Z,3.53
2018-09-14T06:33:17.328Z,3.90
2018-09-14T06:35:44.474Z,4.80
2018-09-14T06:38:11.695Z,4.20
2018-09-14T06:40:38.817Z,4.27
2018-09-14T06:43:05.930Z,3.87
2018-09-14T06:45:33.094Z,4.23
2018-09-14T06:48:00.187Z,4.20
2018-09-14T06:50:27.302Z,3.70
2018-09-14T06:52:54.418Z,4.53
2018-09-14T06:55:21.711Z,4.00
2018-09-14T06:57:48.881Z,3.80
2018-09-14T07:00:16.118Z,3.77
2018-09-14T07:02:43.191Z,3.67
2018-09-14T07:05:10.325Z,3.47
2018-09-14T07:07:37.451Z,3.75
2018-09-14T07:10:04.562Z,3.42
2018-09-14T07:12:31.705Z,3.77
2018-09-14T07:14:58.798Z,3.50
2018-09-14T07:17:25.934Z,3.65
2018-09-14T07:19:53.151Z,3.15
2018-09-14T07:22:20.362Z,3.87
2018-09-14T07:24:47.546Z,4.40
2018-09-14T07:27:14.582Z,3.58
2018-09-14T07:29:41.715Z,4.58
2018-09-14T07:32:08.872Z,3.72
2018-09-14T07:34:35.977Z,3.52
2018-09-14T07:37:03.095Z,4.25
2018-09-14T07:39:30.224Z,3.37
2018-09-14T07:41:57.346Z,3.42
2018-09-14T07:44:24.509Z,3.00
2018-09-14T07:46:51.796Z,3.40
2018-09-14T07:49:19.327Z,3.73
2018-09-14T07:51:46.439Z,3.67
2018-09-14T07:54:13.613Z,3.13
2018-09-14T07:56:40.777Z,3.40
2018-09-14T07:59:07.899Z,2.93
2018-09-14T08:01:35.022Z,2.70
2018-09-14T08:04:02.658Z,2.63
2018-09-14T08:06:29.775Z,2.53
2018-09-14T08:08:56.884Z,2.90
2018-09-14T08:11:24.078Z,3.70
2018-09-14T08:13:51.239Z,2.20
2018-09-14T08:16:18.602Z,2.87
2018-09-14T08:18:45.775Z,2.43
2018-09-14T08:21:12.894Z,2.53
2018-09-14T08:23:39.979Z,2.40
2018-09-14T08:26:07.111Z,2.70
2018-09-14T08:28:34.258Z,2.53
2018-09-14T08:31:01.360Z,2.67
2018-09-14T08:33:28.452Z,2.70
2018-09-14T08:35:55.542Z,2.90
2018-09-14T08:38:22.722Z,2.85
2018-09-14T08:40:49.858Z,2.25
2018-09-14T08:43:16.979Z,2.80
2018-09-14T08:45:44.077Z,2.55
2018-09-14T08:48:11.391Z,2.37
2018-09-14T08:50:38.514Z,4.00
2018-09-14T08:53:05.650Z,2.65
2018-09-14T08:55:32.758Z,2.90
2018-09-14T08:57:59.939Z,2.75
2018-09-14T09:00:27.021Z,2.40
2018-09-14T09:03:01.037Z,2.40
2018-09-14T09:05:28.145Z,2.70
2018-09-14T09:07:55.278Z,2.60
2018-09-14T09:10:22.424Z,2.60
2018-09-14T09:12:49.589Z,3.20
2018-09-14T09:15:16.741Z,2.33
2018-09-14T09:17:43.886Z,2.10
2018-09-14T09:20:11.174Z,2.27
2018-09-14T09:22:38.292Z,2.60
2018-09-14T09:25:05.519Z,3.10
2018-09-14T09:27:32.666Z,2.63
2018-09-14T09:29:59.766Z,2.67
2018-09-14T09:32:26.892Z,2.63
2018-09-14T09:34:54.147Z,3.67
2018-09-14T09:37:21.807Z,3.13
2018-09-14T09:39:49.009Z,2.60
2018-09-14T09:42:16.175Z,2.73
2018-09-14T09:44:43.274Z,3.03
2018-09-14T09:47:10.394Z,2.70
2018-09-14T09:49:38.002Z,3.20
2018-09-14T09:52:05.169Z,2.90
2018-09-14T09:54:32.384Z,2.83
2018-09-14T09:56:59.723Z,2.60
2018-09-14T09:59:26.873Z,2.60
2018-09-14T10:01:59.722Z,2.52
2018-09-14T10:04:31.670Z,3.20
2018-09-14T10:06:58.778Z,2.45
2018-09-14T10:09:25.889Z,3.20
2018-09-14T10:11:53.075Z,2.85
2018-09-14T10:14:20.331Z,2.55
2018-09-14T10:16:47.687Z,2.72
2018-09-14T10:19:14.795Z,2.50
2018-09-14T10:21:41.892Z,2.62
2018-09-14T10:24:09.030Z,2.50
2018-09-14T10:26:36.142Z,2.75
2018-09-14T10:29:03.335Z,2.47
2018-09-14T10:31:30.422Z,2.47
2018-09-14T10:33:57.609Z,2.33
2018-09-14T10:36:24.690Z,2.90
2018-09-14T10:38:51.919Z,3.72
2018-09-14T10:41:19.069Z,2.58
2018-09-14T10:43:46.199Z,2.92
2018-09-14T10:46:13.295Z,3.17
2018-09-14T10:48:40.472Z,3.42
2018-09-14T10:51:07.681Z,3.02
2018-09-14T10:53:34.787Z,2.67
2018-09-14T10:56:01.927Z,3.12
2018-09-14T10:58:33.670Z,3.08
2018-09-14T11:01:00.792Z,3.00
2018-09-14T11:03:34.359Z,3.30
2018-09-14T11:06:01.681Z,3.70
2018-09-14T11:08:28.839Z,2.90
2018-09-14T11:10:55.989Z,3.27
2018-09-14T11:13:23.114Z,2.67
2018-09-14T11:15:50.242Z,3.58
2018-09-14T11:18:17.344Z,3.20
2018-09-14T11:20:44.483Z,3.20
2018-09-14T11:23:11.586Z,3.22
2018-09-14T11:25:38.736Z,3.10
2018-09-14T11:28:05.858Z,2.42
2018-09-14T11:30:33.211Z,2.75
2018-09-14T11:33:00.586Z,2.33
2018-09-14T11:35:28.042Z,2.90
2018-09-14T11:37:55.735Z,2.90
2018-09-14T11:40:22.762Z,2.60
2018-09-14T11:42:49.875Z,2.50
2018-09-14T11:45:17.028Z,2.22
2018-09-14T11:47:44.163Z,2.55
2018-09-14T11:50:11.275Z,2.62
2018-09-14T11:52:38.406Z,2.83
2018-09-14T11:55:05.522Z,2.58
2018-09-14T11:57:32.692Z,3.05
2018-09-14T11:59:59.881Z,2.80
2018-09-14T12:02:27.062Z,2.90
2018-09-14T12:04:55.214Z,2.58
2018-09-14T12:07:22.414Z,2.87
2018-09-14T12:09:49.522Z,2.55
2018-09-14T12:12:16.634Z,2.40
2018-09-14T12:14:43.726Z,2.40
2018-09-14T12:17:11.180Z,2.30
2018-09-14T12:19:38.430Z,2.30
2018-09-14T12:22:05.643Z,2.35
2018-09-14T12:24:32.762Z,2.67
2018-09-14T12:26:59.986Z,2.40
2018-09-14T12:29:27.137Z,2.33
2018-09-14T12:31:54.440Z,2.37
2018-09-14T12:34:21.538Z,2.42
2018-09-14T12:36:48.643Z,3.00
2018-09-14T12:39:15.754Z,2.08
2018-09-14T12:41:42.886Z,2.60
2018-09-14T12:44:09.986Z,2.30
2018-09-14T12:46:37.078Z,2.83
2018-09-14T12:49:04.218Z,2.15
2018-09-14T12:51:31.388Z,2.40
2018-09-14T12:53:58.545Z,2.27
2018-09-14T12:56:25.788Z,2.40
2018-09-14T12:58:53.405Z,2.50
2018-09-14T13:01:20.566Z,2.58
2018-09-14T13:03:47.670Z,2.73
2018-09-14T13:06:14.791Z,2.20
2018-09-14T13:08:41.902Z,3.08
2018-09-14T13:11:09.006Z,2.80
2018-09-14T13:13:36.166Z,2.40
2018-09-14T13:16:03.327Z,2.63
2018-09-14T13:18:30.656Z,2.50
2018-09-14T13:20:57.893Z,2.60
2018-09-14T13:23:25.361Z,2.10
2018-09-14T13:25:52.673Z,2.20
2018-09-14T13:28:19.816Z,2.63
2018-09-14T13:30:46.948Z,2.42
2018-09-14T13:33:14.069Z,2.77
2018-09-14T13:35:41.174Z,2.80
2018-09-14T13:38:15.046Z,2.83
2018-09-14T13:40:42.162Z,2.70
2018-09-14T13:43:09.270Z,2.55
2018-09-14T13:45:36.386Z,2.75
2018-09-14T13:48:03.517Z,2.60
2018-09-14T13:50:31.071Z,3.00
2018-09-14T13:52:58.409Z,2.62
2018-09-14T13:55:25.575Z,2.77
2018-09-14T13:57:52.702Z,2.80
2018-09-14T14:00:19.862Z,2.50
2018-09-14T14:02:47.024Z,2.50
2018-09-14T14:05:14.155Z,2.47
2018-09-14T14:07:41.314Z,2.90
2018-09-14T14:10:08.485Z,2.80
2018-09-14T14:12:35.638Z,2.85
2018-09-14T14:15:02.878Z,2.60
2018-09-14T14:17:30.116Z,2.62
2018-09-14T14:19:57.221Z,2.60
2018-09-14T14:22:24.462Z,2.80
2018-09-14T14:24:51.578Z,2.90
2018-09-14T14:27:18.707Z,2.75
2018-09-14T14:29:45.818Z,3.00
2018-09-14T14:32:12.899Z,2.50
2018-09-14T14:34:40.010Z,2.47
2018-09-14T14:37:07.138Z,2.45
2018-09-14T14:39:34.259Z,2.62
2018-09-14T14:42:01.501Z,3.45
2018-09-14T14:44:28.753Z,2.77
2018-09-14T14:46:55.990Z,2.77
2018-09-14T14:49:23.233Z,2.67
2018-09-14T14:51:50.546Z,2.92
2018-09-14T14:54:17.683Z,2.95
2018-09-14T14:56:44.862Z,2.60
2018-09-14T14:59:12.143Z,3.08
2018-09-14T15:01:39.270Z,2.93
2018-09-14T15:04:06.407Z,2.95
2018-09-14T15:06:33.683Z,2.80
2018-09-14T15:09:01.043Z,2.97
2018-09-14T15:11:28.247Z,2.60
2018-09-14T15:13:55.680Z,2.23
2018-09-14T15:16:22.829Z,3.00
2018-09-14T15:18:49.974Z,3.07
2018-09-14T15:21:17.114Z,2.67
2018-09-14T15:23:44.251Z,2.60
2018-09-14T15:26:11.384Z,2.60
2018-09-14T15:28:38.542Z,3.00
2018-09-14T15:31:05.672Z,3.10
2018-09-14T15:33:33.741Z,2.37
2018-09-14T15:36:01.015Z,2.60
2018-09-14T15:38:28.293Z,3.43
2018-09-14T15:40:55.727Z,3.03
2018-09-14T15:43:22.854Z,3.00
2018-09-14T15:45:49.969Z,2.77
2018-09-14T15:48:17.093Z,2.73
2018-09-14T15:50:44.223Z,2.47
2018-09-14T15:53:11.342Z,3.47
2018-09-14T15:55:38.479Z,2.83
2018-09-14T15:58:05.618Z,3.10
2018-09-14T16:00:32.931Z,2.70
2018-09-14T16:03:00.218Z,2.70
2018-09-14T16:05:27.413Z,2.90
2018-09-14T16:07:54.680Z,2.50
2018-09-14T16:10:21.818Z,2.63
2018-09-14T16:12:48.926Z,2.60
2018-09-14T16:15:16.056Z,2.90
2018-09-14T16:17:43.193Z,3.00
2018-09-14T16:20:10.379Z,3.27
2018-09-14T16:22:37.474Z,3.27
2018-09-14T16:25:05.032Z,3.20
2018-09-14T16:27:32.215Z,2.87
2018-09-14T16:29:59.436Z,2.73
2018-09-14T16:32:27.020Z,2.77
2018-09-14T16:34:54.209Z,2.63
2018-09-14T16:37:21.416Z,2.77
2018-09-14T16:39:48.487Z,2.40
2018-09-14T16:42:15.625Z,2.63
2018-09-14T16:44:42.754Z,3.03
2018-09-14T16:47:10.328Z,2.50
2018-09-14T16:49:37.888Z,2.93
2018-09-14T16:52:05.063Z,2.27
2018-09-14T16:54:32.283Z,2.97
2018-09-14T16:56:59.458Z,2.90
2018-09-14T16:59:26.742Z,3.23
2018-09-14T17:01:54.160Z,2.87
2018-09-14T17:04:21.418Z,3.27
2018-09-14T17:06:48.546Z,2.87
2018-09-14T17:09:15.702Z,2.80
2018-09-14T17:11:42.888Z,2.43
2018-09-14T17:14:10.019Z,2.80
2018-09-14T17:16:37.862Z,3.03
2018-09-14T17:19:05.199Z,2.53
2018-09-14T17:21:32.360Z,2.60
2018-09-14T17:23:59.502Z,2.97
2018-09-14T17:26:26.686Z,3.33
2018-09-14T17:28:53.866Z,3.07
2018-09-14T17:31:20.999Z,2.90
2018-09-14T17:33:48.108Z,2.90
2018-09-14T17:36:16.268Z,3.33
2018-09-14T17:38:43.402Z,3.03
2018-09-14T17:41:10.498Z,3.20
2018-09-14T17:43:37.634Z,3.17
2018-09-14T17:46:04.762Z,3.40
2018-09-14T17:48:32.104Z,3.60
2018-09-14T17:50:59.241Z,9.83
2018-09-14T17:53:26.779Z,10.50
2018-09-14T17:55:54.039Z,20.80
2018-09-14T17:58:21.270Z,15.13
2018-09-14T18:00:48.902Z,15.37
2018-09-14T18:03:16.110Z,3.17
2018-09-14T18:05:43.190Z,3.33
2018-09-14T18:08:10.314Z,3.60
2018-09-14T18:10:37.422Z,3.07
2018-09-14T18:13:04.743Z,2.90
2018-09-14T18:15:31.858Z,3.10
2018-09-14T18:17:59.023Z,2.63
2018-09-14T18:20:26.202Z,3.03
2018-09-14T18:22:53.337Z,3.30
2018-09-14T18:25:20.446Z,2.73
2018-09-14T18:27:47.692Z,3.40
2018-09-14T18:30:14.780Z,2.73
2018-09-14T18:32:41.904Z,2.97
2018-09-14T18:35:09.042Z,3.30
2018-09-14T18:37:36.231Z,3.10
2018-09-14T18:40:03.550Z,2.87
2018-09-14T18:42:30.674Z,2.73
2018-09-14T18:44:57.880Z,3.23
2018-09-14T18:47:25.054Z,3.53
2018-09-14T18:49:52.186Z,3.27
2018-09-14T18:52:19.315Z,2.90
2018-09-14T18:54:46.469Z,2.90
2018-09-14T18:57:13.623Z,3.00
2018-09-14T18:59:40.742Z,3.20
2018-09-14T19:02:07.904Z,3.37
2018-09-14T19:04:35.091Z,3.00
2018-09-14T19:07:02.290Z,3.20
2018-09-14T19:09:29.536Z,3.27
2018-09-14T19:11:56.796Z,3.27
2018-09-14T19:14:23.953Z,3.40
2018-09-14T19:16:51.080Z,3.07
2018-09-14T19:19:18.402Z,3.60
2018-09-14T19:21:45.477Z,3.00
2018-09-14T19:24:12.588Z,2.90
2018-09-14T19:26:39.716Z,3.20
2018-09-14T19:29:06.853Z,3.30
2018-09-14T19:31:33.998Z,2.80
2018-09-14T19:34:01.190Z,3.03
2018-09-14T19:36:28.537Z,3.57
2018-09-14T19:38:55.757Z,3.33
2018-09-14T19:41:23.379Z,3.30
2018-09-14T19:43:50.529Z,4.60
2018-09-14T19:46:17.686Z,4.37
2018-09-14T19:48:44.794Z,4.10
2018-09-14T19:51:11.932Z,3.70
2018-09-14T19:53:39.086Z,2.97
2018-09-14T19:56:06.223Z,3.40
2018-09-14T19:58:33.357Z,3.33
2018-09-14T20:01:00.558Z,2.77
2018-09-14T20:03:27.743Z,2.80
2018-09-14T20:05:54.930Z,3.10
2018-09-14T20:08:22.039Z,3.10
2018-09-14T20:10:49.154Z,2.80
2018-09-14T20:13:16.315Z,3.07
2018-09-14T20:15:43.430Z,2.60
2018-09-14T20:18:10.606Z,3.00
2018-09-14T20:20:37.779Z,3.40
2018-09-14T20:23:04.914Z,3.00
2018-09-14T20:25:32.118Z,3.70
2018-09-14T20:27:59.281Z,3.17
2018-09-14T20:30:26.468Z,3.27
2018-09-14T20:32:54.195Z,3.00
2018-09-14T20:35:21.324Z,3.33
2018-09-14T20:37:48.451Z,3.17
2018-09-14T20:40:15.566Z,2.50
2018-09-14T20:42:42.701Z,3.10
2018-09-14T20:45:09.859Z,3.10
2018-09-14T20:47:37.052Z,2.87
2018-09-14T20:50:04.550Z,3.47
2018-09-14T20:52:31.710Z,3.10
2018-09-14T20:54:59.157Z,2.70
2018-09-14T20:57:26.290Z,3.40
2018-09-14T20:59:53.410Z,3.37
2018-09-14T21:02:20.528Z,3.40
2018-09-14T21:04:47.644Z,3.27
2018-09-14T21:07:14.759Z,3.60
2018-09-14T21:09:41.871Z,3.20
2018-09-14T21:12:09.002Z,3.57
2018-09-14T21:14:36.131Z,3.40
2018-09-14T21:17:03.270Z,3.37
2018-09-14T21:19:30.415Z,3.77
2018-09-14T21:21:57.600Z,3.50
2018-09-14T21:24:24.766Z,3.77
2018-09-14T21:26:52.108Z,3.80
2018-09-14T21:29:19.259Z,3.33
2018-09-14T21:31:46.434Z,3.40
2018-09-14T21:34:13.546Z,3.13
2018-09-14T21:36:40.675Z,3.10
2018-09-14T21:39:08.747Z,3.53
2018-09-14T21:41:35.889Z,4.00
2018-09-14T21:44:03.017Z,3.93
2018-09-14T21:46:30.148Z,4.00
2018-09-14T21:48:57.312Z,3.37
2018-09-14T21:51:24.487Z,3.13
2018-09-14T21:53:51.757Z,3.13
2018-09-14T21:56:18.836Z,3.43
2018-09-14T21:58:45.983Z,3.57
2018-09-14T22:01:13.818Z,3.90
2018-09-14T22:03:41.813Z,3.47
2018-09-14T22:06:08.975Z,3.43
2018-09-14T22:08:36.084Z,3.60
2018-09-14T22:11:03.206Z,3.60
2018-09-14T22:13:30.370Z,3.83
2018-09-14T22:15:57.574Z,3.27
2018-09-14T22:18:24.747Z,3.57
2018-09-14T22:20:51.901Z,3.80
2018-09-14T22:23:19.033Z,3.83
2018-09-14T22:25:46.196Z,3.47
2018-09-14T22:28:13.330Z,3.50
2018-09-14T22:30:40.444Z,3.73
2018-09-14T22:33:07.615Z,3.37
2018-09-14T22:35:34.726Z,4.20
2018-09-14T22:38:01.947Z,3.50
2018-09-14T22:40:29.178Z,3.77
2018-09-14T22:42:56.334Z,3.40
2018-09-14T22:45:23.790Z,3.97
2018-09-14T22:47:51.042Z,3.37
2018-09-14T22:50:18.177Z,3.43
2018-09-14T22:52:45.289Z,3.40
2018-09-14T22:55:12.394Z,4.00
2018-09-14T22:57:39.533Z,3.80
2018-09-14T23:00:06.836Z,3.37
2018-09-14T23:02:33.950Z,3.93
2018-09-14T23:05:01.083Z,3.40
2018-09-14T23:07:28.238Z,3.53
2018-09-14T23:09:55.388Z,3.73
2018-09-14T23:12:22.477Z,3.07
2018-09-14T23:14:49.603Z,3.17
2018-09-14T23:17:16.778Z,4.40
2018-09-14T23:19:43.920Z,3.93
2018-09-14T23:22:11.024Z,3.43
2018-09-14T23:24:38.125Z,3.60
2018-09-14T23:27:05.342Z,3.53
2018-09-14T23:29:32.457Z,3.87
2018-09-14T23:31:59.747Z,3.73
2018-09-14T23:34:26.885Z,3.97
2018-09-14T23:36:54.054Z,2.93
2018-09-14T23:39:21.182Z,3.63
2018-09-14T23:41:48.315Z,2.90
2018-09-14T23:44:15.420Z,3.33
2018-09-14T23:46:42.570Z,3.23
2018-09-14T23:49:09.694Z,3.07
2018-09-14T23:51:36.808Z,3.53
2018-09-14T23:54:03.936Z,3.00
2018-09-14T23:56:31.074Z,3.43
2018-09-14T23:58:58.733Z,3.20
